• Join FlightAware (Why Join?)
  • Login
  • US Flag 
04:25AM EDT


 

Airport Tracker/Info


-or-


 

Live Flight TrackerFlight Track Log ✈ DAL1283 ✈ 31-Jul-2013 ✈ KMSP - KDFW

Flight Track Log - Related Links

Times and Time Zones

All times are in EDT time to prevent confusion due to time zone crossing. See the DAL1283 flight status page for this flight to view local times or setup timezone preferences in your user account.

Time Position Orientation Groundspeed Altitude Reporting Facility
EDT Latitude Longitude Course Direction KTS MPH feet Rate Location/Type
08:49PM 44.8833 -93.3000 251° West 205 236 3,400  Level Minneapolis TRACON
08:50PM 44.8625 -93.3714 248° West 218 251 6,600 2,520 Climbing Minneapolis Center
08:51PM 44.4194 -93.3971 208° Southwest  Level Estimated
08:51PM 44.7933 -93.4117 202° Southwest 278 320 8,700  Level Minneapolis Center
08:52PM 44.3037 -93.4405 205° Southwest  Level Estimated
08:52PM 44.7200 -93.4547 203° Southwest 291 335 10,200  Level Minneapolis Center
08:53PM 44.1880 -93.4837 209° Southwest  Level Estimated
08:53PM 44.6144 -93.5144 202° Southwest 363 418 12,300  Level Minneapolis Center
08:54PM 44.1484 -93.6413 251° West  Level FlightAware Approximate
08:54PM 44.4958 -93.5825 202° Southwest 388 447 15,400  Level Minneapolis Center
08:55PM 44.3942 -93.6442 203° Southwest 403 464 17,700 1,980 Climbing Minneapolis Center
08:56PM 44.2969 -93.7250 211° Southwest 407 468 19,500 2,040 Climbing Minneapolis Center
08:57PM 44.1725 -93.8239 210° Southwest 427 491 22,000 1,920 Climbing Minneapolis Center
08:58PM 44.0661 -93.9086 210° Southwest 437 503 23,600 1,560 Climbing Minneapolis Center
08:59PM 43.9569 -93.9950 210° Southwest 449 517 25,300 1,500 Climbing Minneapolis Center
09:00PM 43.8467 -94.0811 209° Southwest 453 521 26,700 1,200 Climbing Minneapolis Center
09:01PM 43.7225 -94.1422 200° South 474 545 27,900 1,140 Climbing Minneapolis Center
09:02PM 43.5678 -94.2150 199° South 486 559 29,100 1,200 Climbing Minneapolis Center
09:03PM 43.4433 -94.2725 199° South 490 564 30,500 1,200 Climbing Minneapolis Center
09:04PM 43.3150 -94.3325 199° South 488 562 31,700 1,080 Climbing Minneapolis Center
09:05PM 43.1869 -94.3925 199° South 487 560 32,800 1,020 Climbing Minneapolis Center
09:07PM 43.0589 -94.4519 199° South 486 559 33,900 900 Climbing Minneapolis Center
09:08PM 42.9539 -94.5008 199° South 482 555 34,700 960 Climbing Minneapolis Center
09:09PM 42.7761 -94.5822 199° South 486 559 35,900 600 Climbing Minneapolis Center
09:10PM 42.6550 -94.6364 198° South 480 552 36,000  Climbing Minneapolis Center
09:11PM 42.5286 -94.6939 199° South 478 550 36,000  Level Minneapolis Center
09:12PM 42.4269 -94.7403 199° South 480 552 36,000  Level Minneapolis Center
09:13PM 42.2747 -94.8078 198° South 479 551 36,000  Level Minneapolis Center
09:14PM 42.1008 -94.8894 199° South 473 544 36,000  Level Minneapolis Center
09:15PM 41.9689 -94.9325 194° South 488 562 36,000  Level Minneapolis Center
09:16PM 41.8328 -94.9600 189° South 491 565 36,000  Level Minneapolis Center
09:17PM 41.7000 -94.9886 189° South 489 563 36,000  Level Minneapolis Center
09:18PM 41.5658 -95.0178 189° South 486 559 36,000  Level Minneapolis Center
09:19PM 41.4328 -95.0461 189° South 485 558 36,000  Level Minneapolis Center
09:20PM 41.2997 -95.0736 189° South 482 555 36,000  Level Minneapolis Center
09:21PM 41.1672 -95.1022 189° South 480 552 36,000  Level Minneapolis Center
09:22PM 41.0061 -95.1383 190° South 484 557 36,000  Level Minneapolis Center
09:23PM 40.8981 -95.1625 190° South 485 558 36,000  Level Minneapolis Center
09:24PM 40.7361 -95.1994 190° South 488 562 36,000  Level Minneapolis Center
09:25PM 40.6036 -95.2281 189° South 485 558 36,000  Level Minneapolis Center
09:26PM 40.4697 -95.2586 190° South 484 557 36,000  Level Minneapolis Center
09:27PM 40.3375 -95.2881 190° South 483 556 36,000  Level Minneapolis Center
09:28PM 40.1906 -95.3575 200° South 473 544 36,000  Level Minneapolis Center
09:29PM 40.0683 -95.4225 202° Southwest 471 542 36,000  Level Minneapolis Center
09:30PM 39.9458 -95.4828 201° Southwest 471 542 36,000  Level Minneapolis Center
09:32PM 39.8247 -95.5433 201° Southwest 468 539 36,000  Level Minneapolis Center
09:33PM 39.7028 -95.6033 201° Southwest 468 539 36,000  Level Minneapolis Center
09:34PM 39.5803 -95.6633 201° Southwest 468 539 36,000  Level Minneapolis Center
09:35PM 39.4342 -95.7344 201° Southwest 467 537 36,000  Level Minneapolis Center
09:36PM 39.2881 -95.8058 201° Southwest 467 537 36,000  Level Minneapolis Center
09:37PM 39.1661 -95.8658 201° Southwest 468 539 36,000  Level Minneapolis Center
09:38PM 39.0111 -95.9383 200° South 471 542 36,000  Level Kansas City Center
09:39PM 38.8967 -95.9947 201° Southwest 466 536 36,000  Level Kansas City Center
09:40PM 38.7803 -96.0497 200° South 465 535 36,000  Level Kansas City Center
09:41PM 38.6469 -96.1147 201° Southwest 461 531 36,000  Level Kansas City Center
09:42PM 38.5294 -96.1692 200° South 465 535 36,000  Level Kansas City Center
09:43PM 38.3933 -96.2347 201° Southwest 467 537 36,000  Level Kansas City Center
09:44PM 38.2767 -96.2892 200° South 468 539 36,000  Level Kansas City Center
09:45PM 38.1583 -96.3447 200° South 467 537 36,000  Level Kansas City Center
09:46PM 38.0372 -96.4022 201° Southwest 461 531 36,000  Level Kansas City Center
09:47PM 37.9156 -96.4578 200° South 463 533 36,000  Level Kansas City Center
09:48PM 37.7697 -96.5253 200° South 463 533 36,000  Level Kansas City Center
09:49PM 37.6497 -96.5811 200° South 459 528 36,000  Level Kansas City Center
09:50PM 37.5306 -96.6364 200° South 455 524 36,000  Level Kansas City Center
09:51PM 37.4114 -96.6911 200° South 454 522 36,000 -240 Level Kansas City Center
09:52PM 37.2928 -96.7453 200° South 453 521 35,600 -540 Descending Kansas City Center
09:54PM 37.1717 -96.8003 200° South 457 526 35,000 -420 Descending Kansas City Center
09:55PM 37.0494 -96.8556 200° South 461 531 34,800 -540 Descending Kansas City Center
09:56PM 36.9278 -96.9117 200° South 464 534 33,900 -1,020 Descending Kansas City Center
09:57PM 36.7967 -96.9725 200° South 463 533 32,800 -960 Descending Kansas City Center
09:58PM 36.6725 -97.0275 200° South 470 541 32,000 -420 Descending Kansas City Center
09:59PM 36.5514 -97.0825 200° South 471 542 32,000  Level Kansas City Center
10:00PM 36.4039 -97.1478 200° South 470 541 32,000  Level Kansas City Center
10:01PM 36.2808 -97.2036 200° South 471 542 32,000  Level Kansas City Center
10:02PM 36.1575 -97.2592 200° South 472 543 32,000  Level Kansas City Center
10:03PM 36.0331 -97.3136 199° South 474 545 32,000  Level Kansas City Center
10:04PM 35.9092 -97.3678 200° South 474 545 32,000  Level Kansas City Center
10:05PM 35.7856 -97.4222 200° South 473 544 32,000  Level Kansas City Center
10:06PM 35.6614 -97.4775 200° South 477 549 32,000  Level Kansas City Center
10:07PM 35.5122 -97.5458 200° South 482 555 32,100  Climbing Kansas City Center
10:08PM 35.3839 -97.5919 196° South 488 562 32,000 -60 Descending Kansas City Center
10:09PM 35.2506 -97.5978 182° South 487 560 32,000 -420 Level Kansas City Center
10:10PM 35.1189 -97.5753 172° South 482 555 31,200 -900 Descending Kansas City Center
10:11PM 34.9847 -97.5564 173° South 485 558 30,200 -1,080 Descending Kansas City Center
10:12PM 34.8511 -97.5369 173° South 486 559 29,100 -1,320 Descending Kansas City Center
10:13PM 34.6900 -97.5147 174° South 486 559 27,500 -1,500 Descending Kansas City Center
10:14PM 34.5539 -97.4958 173° South 491 565 26,100 -1,380 Descending Kansas City Center
10:15PM 34.4175 -97.4764 173° South 493 567 24,800 -960 Descending Kansas City Center
10:16PM 34.2567 -97.4889 184° South 487 560 24,000 -360 Descending Fort Worth Center
10:17PM 34.1358 -97.5464 202° Southwest 466 536 24,000 -540 Level Fort Worth Center
10:18PM 34.0231 -97.5989 201° Southwest 424 488 23,000 -960 Descending Fort Worth Center
10:19PM 33.9206 -97.6136 187° South 388 447 22,100 -960 Descending Fort Worth Center
10:20PM 33.8289 -97.6186 183° South 371 427 21,100 -1,080 Descending Fort Worth Center
10:21PM 33.7203 -97.6258 183° South 376 433 20,000 -1,740 Descending Fort Worth Center
10:22PM 33.5992 -97.5981 169° South 394 453 17,700 -2,700 Descending Fort Worth Center
10:23PM 33.4908 -97.5728 169° South 405 466 14,700 -2,580 Descending Fort Worth Center
10:24PM 33.3844 -97.5428 167° South 400 460 12,600 -1,920 Descending Fort Worth Center
10:25PM 33.2833 -97.5167 168° South 325 374 11,000 -840 Descending Dallas / Fort Worth TRACON
10:26PM 33.2167 -97.4500 140° Southeast 315 362 11,000  Level Dallas / Fort Worth TRACON
10:27PM 33.1667 -97.3833 132° Southeast 314 361 11,000  Level Dallas / Fort Worth TRACON
10:28PM 33.1000 -97.3167 140° Southeast 313 360 11,000  Level Dallas / Fort Worth TRACON
10:29PM 33.0500 -97.2333 126° Southeast 316 364 11,000 -180 Level Dallas / Fort Worth TRACON
10:30PM 32.9833 -97.1667 140° Southeast 276 318 10,700 -900 Descending Dallas / Fort Worth TRACON
10:31PM 32.9000 -97.1667 180° South 266 306 9,300 -1,680 Descending Dallas / Fort Worth TRACON
10:32PM 32.8333 -97.1667 180° South 248 285 7,400 -1,920 Descending Dallas / Fort Worth TRACON
10:33PM 32.7767 -97.1711 184° South 251 289 5,300 -1,860 Descending Fort Worth Center
10:34PM 32.7286 -97.1269 142° Southeast 206 237 3,500 -1,380 Descending Fort Worth Center
10:35PM 32.7681 -97.0725 49° Northeast 119 137 2,600 -840 Descending Fort Worth Center
10:36PM 32.8000 -97.0500 31° Northeast 134 154 2,000 -720 Descending Dallas / Fort Worth TRACON
10:37PM 32.8333 -97.0500 360° North 138 159 1,300 -720 Descending Dallas / Fort Worth TRACON